KCOF/COF METAR and TAF weather

Enter ICAO airport designator
Station Type Date Time Source
KCOF METAR 2021/09/25 10:56 UTC NOAA

KCOF 251056Z AUTO 35005KT 10SM FEW025 26/24 A2997 RMK AO2 SLP153 T02600244 $


Station Type Date Time Source
KCOF Decoded METAR 2021/09/25 10:56 UTC NOAA

Cocoa / Patrick Air Force Base, FL, United States (KCOF) 28-14N 080-36W 3M
Sep 25, 2021 - 06:56 AM EDT / 2021.09.25 1056 UTC
Wind: from the N (350 degrees) at 6 MPH (5 KT):0
Visibility: 10 mile(s):0
Sky conditions: mostly clear
Temperature: 78.8 F (26.0 C)
Dew Point: 75.9 F (24.4 C)
Relative Humidity: 90%
Pressure (altimeter): 29.97 in. Hg (1014 hPa)
ob: KCOF 251056Z AUTO 35005KT 10SM FEW025 26/24 A2997 RMK AO2 SLP153 T02600244
cycle: 11

Station Type Date Time Source
KCOF TAF 2021/09/25 10:06 UTC NOAA

TAF TAF KCOF 251000Z 2510/2616 03007KT 9999 FEW025 QNH2994INS
BECMG 2517/2518 03012G18KT 9999 SCT025 SCT060 QNH2995INS
BECMG 2606/2607 02008KT 9999 SCT030 SCT150 QNH2999INS TX31/2518Z TN25/2510Z

Example: see airport list